createdAt,value
2018-04-18T00:01:15.816Z,15.50
2018-04-18T00:03:43.263Z,15.40
2018-04-18T00:06:10.709Z,15.40
2018-04-18T00:08:38.175Z,15.30
2018-04-18T00:11:05.650Z,15.20
2018-04-18T00:13:33.100Z,15.20
2018-04-18T00:16:00.548Z,15.20
2018-04-18T00:18:28.027Z,15.20
2018-04-18T00:20:55.492Z,15.10
2018-04-18T00:23:22.961Z,15.10
2018-04-18T00:25:50.413Z,15.00
2018-04-18T00:28:17.858Z,14.70
2018-04-18T00:30:45.344Z,14.80
2018-04-18T00:33:13.564Z,14.70
2018-04-18T00:35:41.010Z,14.70
2018-04-18T00:38:08.483Z,14.70
2018-04-18T00:40:35.962Z,14.70
2018-04-18T00:43:04.572Z,14.50
2018-04-18T00:45:32.055Z,14.50
2018-04-18T00:47:59.505Z,14.40
2018-04-18T00:50:27.389Z,14.40
2018-04-18T00:52:54.828Z,14.40
2018-04-18T00:55:22.281Z,14.40
2018-04-18T00:57:49.747Z,14.40
2018-04-18T01:00:17.185Z,14.20
2018-04-18T01:02:45.425Z,14.20
2018-04-18T01:05:12.906Z,14.20
2018-04-18T01:07:40.366Z,14.20
2018-04-18T01:10:08.578Z,14.10
2018-04-18T01:12:36.062Z,14.10
2018-04-18T01:15:03.513Z,14.10
2018-04-18T01:17:30.951Z,14.10
2018-04-18T01:19:58.425Z,14.00
2018-04-18T01:22:25.898Z,14.10
2018-04-18T01:24:53.339Z,14.10
2018-04-18T01:27:21.573Z,14.00
2018-04-18T01:29:49.787Z,13.90
2018-04-18T01:32:17.243Z,13.90
2018-04-18T01:34:44.712Z,13.90
2018-04-18T01:37:12.160Z,13.80
2018-04-18T01:39:39.612Z,13.80
2018-04-18T01:42:07.094Z,13.80
2018-04-18T01:44:34.562Z,13.80
2018-04-18T01:47:02.005Z,13.70
2018-04-18T01:49:32.419Z,13.70
2018-04-18T01:51:59.895Z,13.70
2018-04-18T01:54:27.338Z,13.60
2018-04-18T01:56:54.794Z,13.40
2018-04-18T01:59:22.263Z,13.30
2018-04-18T02:01:49.674Z,13.20
2018-04-18T02:04:17.117Z,13.10
2018-04-18T02:06:44.590Z,13.10
2018-04-18T02:09:12.041Z,13.20
2018-04-18T02:11:39.499Z,13.10
2018-04-18T02:14:06.958Z,13.10
2018-04-18T02:16:34.428Z,13.00
2018-04-18T02:19:01.898Z,13.00
2018-04-18T02:21:29.344Z,13.00
2018-04-18T02:23:56.812Z,12.90
2018-04-18T02:26:24.275Z,13.00
2018-04-18T02:28:51.798Z,13.00
2018-04-18T02:31:19.247Z,13.00
2018-04-18T02:33:46.695Z,13.00
2018-04-18T02:36:14.150Z,12.90
2018-04-18T02:38:41.609Z,12.90
2018-04-18T02:41:09.073Z,13.00
2018-04-18T02:43:36.542Z,13.10
2018-04-18T02:46:04.027Z,13.10
2018-04-18T02:48:31.484Z,13.20
2018-04-18T02:50:58.955Z,13.30
2018-04-18T02:53:26.431Z,13.20
2018-04-18T02:55:54.680Z,13.00
2018-04-18T02:58:22.139Z,13.00
2018-04-18T03:00:49.606Z,13.10
2018-04-18T03:03:17.066Z,13.00
2018-04-18T03:05:45.236Z,12.90
2018-04-18T03:08:12.698Z,12.80
2018-04-18T03:10:40.158Z,12.70
2018-04-18T03:13:08.399Z,12.60
2018-04-18T03:15:35.880Z,12.60
2018-04-18T03:18:03.386Z,12.60
2018-04-18T03:20:30.859Z,12.70
2018-04-18T03:22:58.312Z,12.50
2018-04-18T03:25:27.017Z,12.50
2018-04-18T03:27:54.481Z,12.50
2018-04-18T03:30:21.949Z,12.50
2018-04-18T03:32:49.421Z,12.50
2018-04-18T03:35:17.656Z,12.50
2018-04-18T03:37:45.124Z,12.50
2018-04-18T03:40:12.599Z,12.50
2018-04-18T03:42:40.092Z,12.50
2018-04-18T03:45:07.536Z,12.60
2018-04-18T03:47:35.772Z,12.50
2018-04-18T03:50:03.242Z,12.50
2018-04-18T03:52:30.707Z,12.50
2018-04-18T03:54:58.169Z,12.50
2018-04-18T03:57:26.395Z,12.40
2018-04-18T03:59:53.870Z,12.40
2018-04-18T04:02:22.470Z,12.40
2018-04-18T04:04:49.913Z,12.30
2018-04-18T04:07:17.361Z,12.20
2018-04-18T04:09:44.863Z,12.20
2018-04-18T04:12:13.069Z,12.00
2018-04-18T04:14:40.523Z,11.90
2018-04-18T04:17:20.045Z,11.80
2018-04-18T04:19:59.205Z,11.70
2018-04-18T04:22:38.446Z,11.90
2018-04-18T04:25:05.914Z,11.90
2018-04-18T04:27:33.382Z,11.90
2018-04-18T04:30:00.867Z,12.00
2018-04-18T04:32:29.102Z,12.10
2018-04-18T04:34:56.544Z,12.10
2018-04-18T04:37:24.007Z,12.10
2018-04-18T04:39:51.446Z,12.10
2018-04-18T04:42:18.903Z,12.00
2018-04-18T04:44:46.392Z,11.80
2018-04-18T04:47:13.810Z,11.80
2018-04-18T04:49:41.263Z,11.90
2018-04-18T04:52:08.722Z,11.90
2018-04-18T04:54:36.191Z,11.90
2018-04-18T04:57:03.737Z,11.90
2018-04-18T04:59:31.183Z,11.90
2018-04-18T05:01:58.654Z,11.80
2018-04-18T05:04:26.137Z,11.80
2018-04-18T05:06:53.614Z,11.80
2018-04-18T05:09:21.065Z,11.70
2018-04-18T05:11:48.530Z,11.60
2018-04-18T05:14:16.022Z,11.50
2018-04-18T05:16:43.495Z,11.50
2018-04-18T05:19:10.935Z,11.60
2018-04-18T05:21:38.391Z,11.70
2018-04-18T05:24:06.411Z,11.70
2018-04-18T05:26:33.881Z,11.80
2018-04-18T05:29:01.351Z,12.00
2018-04-18T05:31:28.822Z,11.90
2018-04-18T05:33:57.031Z,12.00
2018-04-18T05:36:24.497Z,12.00
2018-04-18T05:38:51.964Z,12.00
2018-04-18T05:41:19.404Z,12.00
2018-04-18T05:43:46.874Z,12.00
2018-04-18T05:46:14.316Z,12.10
2018-04-18T05:48:41.828Z,12.20
2018-04-18T05:51:10.084Z,12.30
2018-04-18T05:53:37.528Z,12.30
2018-04-18T05:56:05.033Z,12.40
2018-04-18T05:58:33.271Z,12.40
2018-04-18T06:01:00.714Z,12.30
2018-04-18T06:03:28.183Z,12.50
2018-04-18T06:05:55.640Z,12.60
2018-04-18T06:08:23.095Z,12.70
2018-04-18T06:10:50.545Z,12.70
2018-04-18T06:13:18.007Z,12.70
2018-04-18T06:15:45.500Z,12.80
2018-04-18T06:18:13.702Z,13.00
2018-04-18T06:20:41.177Z,13.00
2018-04-18T06:23:08.633Z,13.10
2018-04-18T06:25:36.530Z,13.30
2018-04-18T06:28:03.984Z,13.70
2018-04-18T06:30:31.432Z,13.80
2018-04-18T06:32:58.918Z,14.20
2018-04-18T06:35:27.129Z,14.90
2018-04-18T06:37:54.607Z,14.90
2018-04-18T06:40:22.070Z,15.20
2018-04-18T06:42:49.527Z,15.30
2018-04-18T06:45:16.990Z,15.50
2018-04-18T06:47:44.445Z,15.90
2018-04-18T06:50:11.915Z,16.10
2018-04-18T06:52:39.397Z,16.20
2018-04-18T06:55:07.613Z,16.40
2018-04-18T06:57:35.127Z,16.40
2018-04-18T07:00:02.586Z,16.80
2018-04-18T07:02:30.051Z,17.10
2018-04-18T07:04:57.522Z,17.60
2018-04-18T07:07:24.995Z,17.70
2018-04-18T07:09:52.450Z,17.90
2018-04-18T07:12:19.888Z,18.00
2018-04-18T07:14:47.335Z,18.30
2018-04-18T07:17:14.809Z,18.70
2018-04-18T07:19:42.283Z,19.00
2018-04-18T07:22:09.733Z,19.50
2018-04-18T07:24:37.218Z,19.60
2018-04-18T07:27:04.679Z,20.00
2018-04-18T07:29:32.114Z,20.00
2018-04-18T07:31:59.588Z,20.20
2018-04-18T07:34:27.805Z,20.50
2018-04-18T07:36:55.288Z,20.40
2018-04-18T07:39:22.726Z,20.80
2018-04-18T07:41:50.194Z,21.20
2018-04-18T07:44:17.653Z,21.10
2018-04-18T07:46:45.123Z,21.10
2018-04-18T07:49:12.573Z,21.20
2018-04-18T07:51:40.016Z,21.80
2018-04-18T07:54:07.495Z,22.10
2018-04-18T07:56:34.963Z,22.20
2018-04-18T07:59:02.408Z,22.60
2018-04-18T08:01:29.878Z,22.90
2018-04-18T08:03:58.115Z,22.70
2018-04-18T08:06:25.560Z,22.70
2018-04-18T08:08:53.036Z,23.30
2018-04-18T08:11:20.534Z,23.80
2018-04-18T08:13:48.248Z,24.20
2018-04-18T08:16:15.853Z,25.10
2018-04-18T08:18:44.256Z,26.10
2018-04-18T08:21:11.756Z,26.00
2018-04-18T08:23:39.212Z,26.20
2018-04-18T08:26:06.883Z,26.30
2018-04-18T08:28:34.368Z,26.60
2018-04-18T08:31:01.851Z,26.60
2018-04-18T08:33:30.093Z,27.00
2018-04-18T08:35:57.574Z,26.90
2018-04-18T08:38:25.016Z,27.30
2018-04-18T08:40:52.494Z,27.30
2018-04-18T08:43:20.754Z,28.40
2018-04-18T08:45:48.218Z,28.40
2018-04-18T08:48:15.667Z,28.80
2018-04-18T08:50:43.146Z,29.00
2018-04-18T08:53:10.621Z,29.30
2018-04-18T08:55:38.081Z,29.60
2018-04-18T08:58:05.657Z,30.30
2018-04-18T09:00:33.109Z,30.20
2018-04-18T09:03:00.578Z,30.30
2018-04-18T09:05:28.028Z,30.00
2018-04-18T09:07:55.498Z,29.80
2018-04-18T09:10:22.974Z,30.10
2018-04-18T09:12:50.463Z,30.70
2018-04-18T09:15:18.683Z,30.60
2018-04-18T09:17:46.142Z,30.60
2018-04-18T09:20:13.583Z,31.10
2018-04-18T09:22:41.052Z,31.90
2018-04-18T09:25:08.525Z,32.40
2018-04-18T09:27:35.973Z,32.40
2018-04-18T09:30:03.442Z,32.70
2018-04-18T09:32:30.934Z,33.10
2018-04-18T09:34:59.139Z,33.00
2018-04-18T09:37:26.611Z,32.90
2018-04-18T09:39:54.099Z,33.00
2018-04-18T09:42:21.548Z,33.30
2018-04-18T09:44:49.003Z,33.60
2018-04-18T09:47:16.467Z,33.70
2018-04-18T09:49:43.918Z,33.90
2018-04-18T09:52:12.102Z,33.70
2018-04-18T09:54:39.589Z,34.20
2018-04-18T09:57:07.800Z,34.20
2018-04-18T09:59:35.251Z,34.10
2018-04-18T10:02:08.465Z,34.30
2018-04-18T10:04:35.916Z,34.30
2018-04-18T10:07:03.375Z,34.20
2018-04-18T10:09:30.857Z,34.40
2018-04-18T10:11:58.308Z,34.30
2018-04-18T10:14:25.776Z,35.20
2018-04-18T10:16:53.265Z,34.00
2018-04-18T10:19:20.718Z,34.60
2018-04-18T10:21:48.173Z,35.50
2018-04-18T10:24:15.646Z,35.70
2018-04-18T10:26:43.083Z,35.30
2018-04-18T10:29:10.563Z,36.10
2018-04-18T10:31:38.124Z,35.50
2018-04-18T10:34:05.600Z,35.30
2018-04-18T10:36:33.074Z,36.00
2018-04-18T10:39:00.521Z,36.10
2018-04-18T10:41:28.003Z,35.90
2018-04-18T10:43:55.452Z,36.40
2018-04-18T10:46:23.578Z,36.70
2018-04-18T10:48:51.044Z,36.00
2018-04-18T10:51:18.485Z,36.20
2018-04-18T10:53:46.186Z,36.90
2018-04-18T10:56:13.918Z,37.10
2018-04-18T10:58:41.405Z,38.30
2018-04-18T11:01:08.875Z,37.40
2018-04-18T11:03:36.367Z,37.00
2018-04-18T11:06:03.844Z,37.20
2018-04-18T11:08:31.292Z,37.40
2018-04-18T11:10:58.755Z,37.30
2018-04-18T11:13:26.197Z,37.10
2018-04-18T11:15:53.661Z,37.30
2018-04-18T11:18:21.109Z,38.20
2018-04-18T11:20:48.599Z,38.50
2018-04-18T11:23:16.142Z,38.00
2018-04-18T11:25:43.569Z,37.80
2018-04-18T11:28:11.799Z,36.90
2018-04-18T11:30:39.263Z,36.80
2018-04-18T11:33:06.738Z,37.20
2018-04-18T11:35:34.204Z,37.90
2018-04-18T11:38:02.415Z,38.70
2018-04-18T11:40:29.892Z,38.70
2018-04-18T11:42:57.434Z,38.00
2018-04-18T11:45:24.891Z,38.20
2018-04-18T11:47:52.327Z,38.10
2018-04-18T11:50:19.795Z,37.00
2018-04-18T11:52:47.466Z,36.50
2018-04-18T11:55:14.931Z,36.10
2018-04-18T11:57:42.434Z,36.50
2018-04-18T12:00:09.875Z,37.20
2018-04-18T12:02:37.314Z,38.20
2018-04-18T12:05:04.798Z,38.20
2018-04-18T12:07:32.270Z,38.50
2018-04-18T12:10:00.510Z,37.60
2018-04-18T12:12:27.993Z,37.60
2018-04-18T12:14:55.431Z,37.50
2018-04-18T12:17:22.902Z,38.50
2018-04-18T12:19:50.372Z,38.00
2018-04-18T12:22:18.620Z,37.50
2018-04-18T12:24:46.083Z,37.60
2018-04-18T12:27:13.999Z,37.80
2018-04-18T12:29:41.816Z,37.50
2018-04-18T12:32:09.556Z,37.40
2018-04-18T12:34:37.093Z,37.00
2018-04-18T12:37:04.564Z,37.00
2018-04-18T12:39:32.081Z,36.90
2018-04-18T12:41:59.567Z,37.10
2018-04-18T12:44:27.023Z,37.50
2018-04-18T12:46:54.494Z,38.20
2018-04-18T12:49:21.963Z,38.60
2018-04-18T12:51:49.433Z,38.70
2018-04-18T12:54:16.890Z,38.70
2018-04-18T12:56:44.356Z,38.20
2018-04-18T12:59:11.878Z,37.70
2018-04-18T13:01:39.351Z,37.00
2018-04-18T13:04:06.803Z,36.60
2018-04-18T13:06:34.305Z,36.60
2018-04-18T13:09:02.516Z,37.10
2018-04-18T13:11:30.055Z,37.10
2018-04-18T13:13:57.530Z,36.70
2018-04-18T13:16:24.991Z,36.50
2018-04-18T13:18:52.509Z,35.50
2018-04-18T13:21:20.769Z,36.00
2018-04-18T13:23:48.999Z,36.20
2018-04-18T13:26:16.454Z,36.20
2018-04-18T13:28:43.900Z,35.80
2018-04-18T13:31:11.375Z,36.10
2018-04-18T13:33:38.845Z,35.30
2018-04-18T13:36:06.314Z,35.00
2018-04-18T13:38:33.809Z,34.30
2018-04-18T13:41:01.258Z,34.00
2018-04-18T13:43:29.477Z,32.70
2018-04-18T13:45:56.942Z,32.60
2018-04-18T13:48:24.389Z,32.70
2018-04-18T13:50:51.914Z,32.30
2018-04-18T13:53:20.291Z,31.70
2018-04-18T13:55:48.551Z,31.10
2018-04-18T13:58:16.790Z,31.30
2018-04-18T14:00:44.259Z,31.30
2018-04-18T14:03:11.731Z,31.20
2018-04-18T14:05:39.176Z,30.80
2018-04-18T14:08:06.646Z,30.80
2018-04-18T14:10:34.102Z,30.50
2018-04-18T14:13:01.581Z,30.70
2018-04-18T14:15:29.034Z,30.60
2018-04-18T14:17:57.249Z,30.70
2018-04-18T14:20:24.726Z,30.70
2018-04-18T14:22:52.235Z,30.70
2018-04-18T14:25:19.686Z,30.60
2018-04-18T14:27:47.284Z,30.60
2018-04-18T14:30:15.168Z,30.30
2018-04-18T14:32:43.882Z,30.20
2018-04-18T14:35:11.935Z,30.10
2018-04-18T14:37:39.495Z,29.90
2018-04-18T14:40:07.012Z,29.70
2018-04-18T14:42:34.534Z,29.60
2018-04-18T14:45:02.824Z,29.80
2018-04-18T14:47:30.340Z,29.80
2018-04-18T14:49:58.622Z,29.60
2018-04-18T14:52:26.202Z,29.60
2018-04-18T14:54:54.463Z,29.60
2018-04-18T14:57:21.903Z,29.60
2018-04-18T14:59:49.489Z,29.30
2018-04-18T15:02:16.957Z,29.20
2018-04-18T15:04:45.195Z,29.30
2018-04-18T15:07:12.741Z,29.20
2018-04-18T15:09:40.344Z,29.30
2018-04-18T15:12:08.641Z,29.30
2018-04-18T15:14:36.155Z,29.20
2018-04-18T15:17:04.492Z,29.40
2018-04-18T15:19:31.989Z,29.40
2018-04-18T15:21:59.906Z,29.20
2018-04-18T15:24:27.404Z,29.10
2018-04-18T15:26:55.144Z,29.10
2018-04-18T15:29:22.950Z,29.20
2018-04-18T15:31:50.395Z,29.10
2018-04-18T15:34:17.871Z,29.00
2018-04-18T15:36:45.567Z,28.90
2018-04-18T15:39:13.042Z,29.00
2018-04-18T15:41:40.503Z,29.00
2018-04-18T15:44:07.952Z,28.80
2018-04-18T15:46:36.308Z,28.80
2018-04-18T15:49:03.790Z,28.80
2018-04-18T15:51:31.527Z,28.70
2018-04-18T15:53:59.010Z,28.70
2018-04-18T15:56:26.502Z,28.70
2018-04-18T15:58:53.970Z,28.60
2018-04-18T16:01:21.588Z,28.50
2018-04-18T16:03:49.185Z,28.40
2018-04-18T16:06:16.896Z,28.40
2018-04-18T16:08:44.537Z,28.40
2018-04-18T16:11:12.107Z,28.40
2018-04-18T16:13:39.993Z,28.50
2018-04-18T16:16:07.433Z,28.30
2018-04-18T16:18:34.883Z,28.30
2018-04-18T16:21:02.579Z,28.30
2018-04-18T16:23:30.343Z,28.20
2018-04-18T16:25:57.894Z,28.30
2018-04-18T16:28:25.373Z,28.20
2018-04-18T16:30:52.912Z,28.20
2018-04-18T16:33:20.456Z,28.20
2018-04-18T16:35:48.332Z,28.20
2018-04-18T16:38:15.886Z,28.20
2018-04-18T16:40:43.535Z,28.20
2018-04-18T16:43:11.062Z,28.10
2018-04-18T16:45:38.567Z,28.10
2018-04-18T16:48:06.009Z,28.00
2018-04-18T16:50:33.490Z,28.00
2018-04-18T16:53:00.997Z,28.00
2018-04-18T16:55:29.275Z,27.90
2018-04-18T16:57:57.493Z,27.90
2018-04-18T17:00:24.990Z,27.80
2018-04-18T17:02:52.559Z,27.70
2018-04-18T17:05:20.820Z,27.60
2018-04-18T17:07:48.263Z,27.60
2018-04-18T17:10:15.709Z,27.50
2018-04-18T17:12:43.172Z,27.50
2018-04-18T17:15:10.687Z,27.50
2018-04-18T17:17:38.159Z,27.40
2018-04-18T17:20:05.616Z,27.40
2018-04-18T17:22:33.122Z,27.40
2018-04-18T17:25:00.582Z,27.30
2018-04-18T17:27:28.052Z,27.20
2018-04-18T17:29:56.280Z,27.10
2018-04-18T17:32:23.731Z,27.10
2018-04-18T17:34:51.200Z,27.00
2018-04-18T17:37:18.698Z,26.90
2018-04-18T17:39:46.927Z,26.90
2018-04-18T17:42:14.396Z,26.90
2018-04-18T17:44:41.896Z,26.80
2018-04-18T17:47:09.357Z,26.80
2018-04-18T17:49:37.565Z,26.70
2018-04-18T17:52:05.062Z,26.70
2018-04-18T17:54:32.515Z,26.70
2018-04-18T17:56:59.962Z,26.60
2018-04-18T17:59:27.422Z,26.70
2018-04-18T18:01:54.913Z,26.60
2018-04-18T18:04:23.117Z,26.50
2018-04-18T18:06:50.591Z,26.50
2018-04-18T18:09:18.076Z,26.40
2018-04-18T18:11:45.524Z,26.40
2018-04-18T18:14:13.345Z,26.20
2018-04-18T18:16:40.826Z,26.20
2018-04-18T18:19:08.274Z,26.10
2018-04-18T18:21:35.752Z,26.10
2018-04-18T18:24:03.204Z,26.10
2018-04-18T18:26:30.699Z,26.10
2018-04-18T18:28:58.169Z,25.90
2018-04-18T18:31:26.412Z,25.80
2018-04-18T18:33:53.854Z,25.80
2018-04-18T18:36:21.355Z,25.70
2018-04-18T18:38:49.564Z,25.50
2018-04-18T18:41:17.029Z,25.50
2018-04-18T18:43:44.501Z,25.30
2018-04-18T18:46:11.955Z,25.20
2018-04-18T18:48:39.408Z,25.00
2018-04-18T18:51:06.852Z,24.90
2018-04-18T18:53:34.346Z,24.70
2018-04-18T18:56:01.808Z,24.50
2018-04-18T18:58:29.307Z,24.40
2018-04-18T19:00:56.767Z,24.30
2018-04-18T19:03:24.256Z,24.10
2018-04-18T19:05:51.726Z,24.00
2018-04-18T19:08:19.274Z,23.90
2018-04-18T19:10:46.957Z,23.80
2018-04-18T19:13:15.401Z,23.60
2018-04-18T19:15:43.235Z,23.60
2018-04-18T19:18:10.936Z,23.50
2018-04-18T19:20:38.460Z,23.60
2018-04-18T19:23:05.903Z,23.50
2018-04-18T19:25:34.113Z,23.30
2018-04-18T19:28:01.598Z,23.30
2018-04-18T19:30:29.070Z,23.30
2018-04-18T19:32:56.549Z,23.30
2018-04-18T19:35:25.049Z,23.20
2018-04-18T19:37:52.592Z,23.20
2018-04-18T19:40:20.076Z,23.10
2018-04-18T19:42:47.541Z,23.00
2018-04-18T19:45:15.009Z,22.90
2018-04-18T19:47:42.495Z,23.00
2018-04-18T19:50:09.904Z,23.00
2018-04-18T19:52:37.356Z,23.00
2018-04-18T19:55:04.818Z,23.10
2018-04-18T19:57:32.277Z,23.00
2018-04-18T19:59:59.751Z,23.00
2018-04-18T20:02:27.359Z,23.00
2018-04-18T20:04:54.814Z,22.90
2018-04-18T20:07:23.070Z,22.60
2018-04-18T20:09:50.506Z,22.60
2018-04-18T20:12:18.218Z,22.50
2018-04-18T20:14:45.885Z,22.50
2018-04-18T20:17:13.547Z,22.50
2018-04-18T20:19:41.021Z,22.40
2018-04-18T20:22:08.668Z,22.30
2018-04-18T20:24:36.326Z,22.30
2018-04-18T20:27:03.992Z,22.20
2018-04-18T20:29:31.730Z,22.10
2018-04-18T20:31:59.954Z,22.10
2018-04-18T20:34:27.428Z,22.00
2018-04-18T20:36:54.905Z,22.00
2018-04-18T20:39:22.349Z,21.90
2018-04-18T20:41:55.375Z,21.80
2018-04-18T20:44:22.850Z,21.70
2018-04-18T20:46:50.337Z,21.70
2018-04-18T20:49:17.791Z,21.60
2018-04-18T20:51:45.277Z,21.40
2018-04-18T20:54:14.468Z,21.20
2018-04-18T20:56:42.029Z,21.20
2018-04-18T20:59:09.468Z,21.30
2018-04-18T21:01:36.946Z,21.30
2018-04-18T21:04:04.501Z,21.20
2018-04-18T21:06:32.059Z,21.10
2018-04-18T21:08:59.607Z,21.00
2018-04-18T21:11:27.154Z,20.90
2018-04-18T21:13:54.619Z,20.90
2018-04-18T21:16:22.202Z,20.80
2018-04-18T21:18:49.736Z,20.80
2018-04-18T21:21:17.193Z,20.80
2018-04-18T21:23:44.655Z,20.70
2018-04-18T21:26:12.227Z,20.70
2018-04-18T21:28:40.246Z,20.50
2018-04-18T21:31:07.804Z,20.50
2018-04-18T21:33:35.295Z,20.40
2018-04-18T21:36:02.769Z,20.50
2018-04-18T21:38:30.275Z,20.50
2018-04-18T21:40:58.462Z,20.40
2018-04-18T21:43:26.008Z,20.40
2018-04-18T21:45:53.452Z,20.40
2018-04-18T21:48:20.975Z,20.30
2018-04-18T21:50:48.432Z,20.30
2018-04-18T21:53:16.661Z,20.20
2018-04-18T21:55:44.123Z,20.20
2018-04-18T21:58:11.604Z,20.20
2018-04-18T22:00:39.047Z,20.20
2018-04-18T22:03:06.515Z,20.10
2018-04-18T22:05:33.983Z,20.00
2018-04-18T22:08:01.461Z,19.90
2018-04-18T22:10:29.715Z,19.90
2018-04-18T22:12:58.695Z,19.90
2018-04-18T22:15:26.725Z,19.90
2018-04-18T22:17:54.179Z,20.00
2018-04-18T22:20:21.658Z,20.10
2018-04-18T22:22:49.159Z,19.90
2018-04-18T22:25:17.375Z,19.70
2018-04-18T22:27:44.878Z,19.70
2018-04-18T22:30:12.348Z,19.70
2018-04-18T22:32:39.982Z,19.70
2018-04-18T22:35:07.467Z,19.50
2018-04-18T22:37:34.990Z,19.50
2018-04-18T22:40:02.446Z,19.60
2018-04-18T22:42:29.912Z,19.70
2018-04-18T22:44:57.367Z,19.60
2018-04-18T22:47:24.852Z,19.40
2018-04-18T22:49:52.297Z,19.30
2018-04-18T22:52:19.785Z,19.20
2018-04-18T22:54:47.991Z,19.10
2018-04-18T22:57:15.433Z,19.10
2018-04-18T22:59:42.911Z,19.10
2018-04-18T23:02:10.390Z,19.00
2018-04-18T23:04:37.853Z,18.90
2018-04-18T23:07:05.424Z,19.00
2018-04-18T23:09:32.864Z,18.90
2018-04-18T23:12:00.339Z,19.10
2018-04-18T23:14:27.895Z,19.20
2018-04-18T23:16:55.368Z,19.20
2018-04-18T23:19:23.615Z,19.20
2018-04-18T23:21:51.089Z,19.10
2018-04-18T23:24:18.537Z,19.00
2018-04-18T23:26:46.022Z,19.00
2018-04-18T23:29:14.244Z,18.70
2018-04-18T23:31:41.717Z,18.70
2018-04-18T23:34:09.269Z,18.60
2018-04-18T23:36:36.744Z,18.60
2018-04-18T23:39:04.243Z,18.60
2018-04-18T23:41:32.026Z,18.50
2018-04-18T23:43:59.488Z,18.40
2018-04-18T23:46:26.975Z,18.30
2018-04-18T23:48:54.488Z,18.10
2018-04-18T23:51:22.684Z,17.80
2018-04-18T23:53:50.131Z,17.80
2018-04-18T23:56:17.609Z,17.70
2018-04-18T23:58:45.091Z,17.60
